sensor_id;sensor_type;location;lat;lon;timestamp;P1;durP1;ratioP1;P2;durP2;ratioP2
9720;SDS011;4899;42.644;23.366;2022-09-09T00:00:24;14.83;;;10.30;;
9720;SDS011;4899;42.644;23.366;2022-09-09T00:02:55;12.27;;;10.97;;
9720;SDS011;4899;42.644;23.366;2022-09-09T00:05:34;15.47;;;10.53;;
9720;SDS011;4899;42.644;23.366;2022-09-09T00:08:09;13.50;;;10.50;;
9720;SDS011;4899;42.644;23.366;2022-09-09T00:10:43;13.80;;;10.83;;
9720;SDS011;4899;42.644;23.366;2022-09-09T00:13:13;14.83;;;11.93;;
9720;SDS011;4899;42.644;23.366;2022-09-09T00:15:47;11.37;;;10.27;;
9720;SDS011;4899;42.644;23.366;2022-09-09T00:18:24;12.57;;;11.37;;
9720;SDS011;4899;42.644;23.366;2022-09-09T00:20:58;15.87;;;12.23;;
9720;SDS011;4899;42.644;23.366;2022-09-09T00:23:32;11.97;;;10.77;;
9720;SDS011;4899;42.644;23.366;2022-09-09T00:26:03;12.70;;;10.53;;
9720;SDS011;4899;42.644;23.366;2022-09-09T00:28:36;12.60;;;11.30;;
9720;SDS011;4899;42.644;23.366;2022-09-09T00:31:11;12.13;;;10.93;;
9720;SDS011;4899;42.644;23.366;2022-09-09T00:33:40;11.47;;;10.37;;
9720;SDS011;4899;42.644;23.366;2022-09-09T00:36:12;11.80;;;10.60;;
9720;SDS011;4899;42.644;23.366;2022-09-09T00:38:42;12.83;;;11.30;;
9720;SDS011;4899;42.644;23.366;2022-09-09T00:41:15;12.93;;;11.10;;
9720;SDS011;4899;42.644;23.366;2022-09-09T00:43:46;11.67;;;10.57;;
9720;SDS011;4899;42.644;23.366;2022-09-09T00:46:26;11.93;;;10.40;;
9720;SDS011;4899;42.644;23.366;2022-09-09T00:49:12;13.10;;;10.87;;
9720;SDS011;4899;42.644;23.366;2022-09-09T00:51:48;11.43;;;10.17;;
9720;SDS011;4899;42.644;23.366;2022-09-09T00:54:26;10.90;;;9.80;;
9720;SDS011;4899;42.644;23.366;2022-09-09T00:57:03;11.67;;;10.57;;
9720;SDS011;4899;42.644;23.366;2022-09-09T00:59:39;11.70;;;9.63;;
9720;SDS011;4899;42.644;23.366;2022-09-09T01:02:13;10.40;;;9.03;;
9720;SDS011;4899;42.644;23.366;2022-09-09T01:04:48;12.13;;;10.40;;
9720;SDS011;4899;42.644;23.366;2022-09-09T01:07:17;15.20;;;11.53;;
9720;SDS011;4899;42.644;23.366;2022-09-09T01:09:49;14.03;;;10.70;;
9720;SDS011;4899;42.644;23.366;2022-09-09T01:12:24;11.90;;;10.83;;
9720;SDS011;4899;42.644;23.366;2022-09-09T01:14:56;12.07;;;10.97;;
9720;SDS011;4899;42.644;23.366;2022-09-09T01:17:34;15.23;;;10.87;;
9720;SDS011;4899;42.644;23.366;2022-09-09T01:20:13;11.87;;;10.67;;
9720;SDS011;4899;42.644;23.366;2022-09-09T01:22:47;12.37;;;11.07;;
9720;SDS011;4899;42.644;23.366;2022-09-09T01:25:28;13.00;;;11.43;;
9720;SDS011;4899;42.644;23.366;2022-09-09T01:28:00;15.50;;;12.07;;
9720;SDS011;4899;42.644;23.366;2022-09-09T01:30:31;15.37;;;11.33;;
9720;SDS011;4899;42.644;23.366;2022-09-09T01:32:59;12.00;;;10.70;;
9720;SDS011;4899;42.644;23.366;2022-09-09T01:35:29;14.47;;;11.53;;
9720;SDS011;4899;42.644;23.366;2022-09-09T01:38:04;13.87;;;12.00;;
9720;SDS011;4899;42.644;23.366;2022-09-09T01:40:31;14.10;;;10.90;;
9720;SDS011;4899;42.644;23.366;2022-09-09T01:43:00;13.13;;;11.27;;
9720;SDS011;4899;42.644;23.366;2022-09-09T01:45:27;12.13;;;10.77;;
9720;SDS011;4899;42.644;23.366;2022-09-09T01:47:54;12.53;;;11.23;;
9720;SDS011;4899;42.644;23.366;2022-09-09T01:50:21;13.40;;;12.00;;
9720;SDS011;4899;42.644;23.366;2022-09-09T01:52:49;14.43;;;10.97;;
9720;SDS011;4899;42.644;23.366;2022-09-09T01:55:18;11.07;;;10.10;;
9720;SDS011;4899;42.644;23.366;2022-09-09T01:57:56;11.20;;;10.10;;
9720;SDS011;4899;42.644;23.366;2022-09-09T02:00:37;10.80;;;9.70;;
9720;SDS011;4899;42.644;23.366;2022-09-09T02:03:12;12.57;;;10.47;;
9720;SDS011;4899;42.644;23.366;2022-09-09T02:05:49;16.97;;;10.37;;
9720;SDS011;4899;42.644;23.366;2022-09-09T02:08:23;11.50;;;10.40;;
9720;SDS011;4899;42.644;23.366;2022-09-09T02:10:55;13.20;;;10.60;;
9720;SDS011;4899;42.644;23.366;2022-09-09T02:13:28;18.40;;;11.60;;
9720;SDS011;4899;42.644;23.366;2022-09-09T02:15:56;11.50;;;10.47;;
9720;SDS011;4899;42.644;23.366;2022-09-09T02:18:27;12.73;;;11.20;;
9720;SDS011;4899;42.644;23.366;2022-09-09T02:20:58;14.90;;;11.43;;
9720;SDS011;4899;42.644;23.366;2022-09-09T02:23:25;13.40;;;11.60;;
9720;SDS011;4899;42.644;23.366;2022-09-09T02:25:54;14.50;;;11.67;;
9720;SDS011;4899;42.644;23.366;2022-09-09T02:28:24;14.93;;;12.00;;
9720;SDS011;4899;42.644;23.366;2022-09-09T02:30:56;14.57;;;11.43;;
9720;SDS011;4899;42.644;23.366;2022-09-09T02:33:24;13.10;;;11.80;;
9720;SDS011;4899;42.644;23.366;2022-09-09T02:35:54;14.43;;;11.07;;
9720;SDS011;4899;42.644;23.366;2022-09-09T02:38:27;13.67;;;12.17;;
9720;SDS011;4899;42.644;23.366;2022-09-09T02:40:58;13.73;;;11.77;;
9720;SDS011;4899;42.644;23.366;2022-09-09T02:43:30;13.63;;;11.47;;
9720;SDS011;4899;42.644;23.366;2022-09-09T02:46:02;13.63;;;11.37;;
9720;SDS011;4899;42.644;23.366;2022-09-09T02:48:34;12.37;;;11.17;;
9720;SDS011;4899;42.644;23.366;2022-09-09T02:51:13;15.37;;;11.80;;
9720;SDS011;4899;42.644;23.366;2022-09-09T02:53:47;12.47;;;11.17;;
9720;SDS011;4899;42.644;23.366;2022-09-09T02:56:21;18.17;;;12.77;;
9720;SDS011;4899;42.644;23.366;2022-09-09T02:58:54;14.77;;;11.93;;
9720;SDS011;4899;42.644;23.366;2022-09-09T03:01:21;15.30;;;12.53;;
9720;SDS011;4899;42.644;23.366;2022-09-09T03:03:48;15.70;;;13.40;;
9720;SDS011;4899;42.644;23.366;2022-09-09T03:06:15;16.63;;;12.33;;
9720;SDS011;4899;42.644;23.366;2022-09-09T03:08:42;16.57;;;13.97;;
9720;SDS011;4899;42.644;23.366;2022-09-09T03:11:09;16.23;;;12.83;;
9720;SDS011;4899;42.644;23.366;2022-09-09T03:13:36;16.90;;;13.83;;
9720;SDS011;4899;42.644;23.366;2022-09-09T03:16:04;20.67;;;14.67;;
9720;SDS011;4899;42.644;23.366;2022-09-09T03:18:31;16.53;;;14.17;;
9720;SDS011;4899;42.644;23.366;2022-09-09T03:20:59;15.30;;;13.37;;
9720;SDS011;4899;42.644;23.366;2022-09-09T03:23:26;15.77;;;13.57;;
9720;SDS011;4899;42.644;23.366;2022-09-09T03:25:53;14.70;;;13.20;;
9720;SDS011;4899;42.644;23.366;2022-09-09T03:28:22;14.90;;;13.40;;
9720;SDS011;4899;42.644;23.366;2022-09-09T03:30:57;17.53;;;13.43;;
9720;SDS011;4899;42.644;23.366;2022-09-09T03:33:27;16.23;;;13.17;;
9720;SDS011;4899;42.644;23.366;2022-09-09T03:35:54;14.40;;;12.90;;
9720;SDS011;4899;42.644;23.366;2022-09-09T03:38:21;14.57;;;13.10;;
9720;SDS011;4899;42.644;23.366;2022-09-09T03:40:50;14.10;;;12.80;;
9720;SDS011;4899;42.644;23.366;2022-09-09T03:43:20;15.27;;;13.77;;
9720;SDS011;4899;42.644;23.366;2022-09-09T03:45:47;15.33;;;13.73;;
9720;SDS011;4899;42.644;23.366;2022-09-09T03:48:14;16.17;;;14.57;;
9720;SDS011;4899;42.644;23.366;2022-09-09T03:50:45;17.00;;;14.63;;
9720;SDS011;4899;42.644;23.366;2022-09-09T03:53:12;15.93;;;13.70;;
9720;SDS011;4899;42.644;23.366;2022-09-09T03:55:43;16.13;;;14.57;;
9720;SDS011;4899;42.644;23.366;2022-09-09T03:58:11;18.47;;;14.27;;
9720;SDS011;4899;42.644;23.366;2022-09-09T04:00:38;14.97;;;13.43;;
9720;SDS011;4899;42.644;23.366;2022-09-09T04:03:08;15.87;;;14.20;;
9720;SDS011;4899;42.644;23.366;2022-09-09T04:05:35;18.20;;;13.90;;
9720;SDS011;4899;42.644;23.366;2022-09-09T04:08:06;16.40;;;13.60;;
9720;SDS011;4899;42.644;23.366;2022-09-09T04:10:33;18.37;;;14.40;;
9720;SDS011;4899;42.644;23.366;2022-09-09T04:13:01;19.90;;;13.30;;
9720;SDS011;4899;42.644;23.366;2022-09-09T04:15:28;15.10;;;13.70;;
9720;SDS011;4899;42.644;23.366;2022-09-09T04:17:55;19.30;;;14.90;;
9720;SDS011;4899;42.644;23.366;2022-09-09T04:20:22;15.63;;;14.00;;
9720;SDS011;4899;42.644;23.366;2022-09-09T04:22:49;19.43;;;14.63;;
9720;SDS011;4899;42.644;23.366;2022-09-09T04:25:17;20.03;;;15.10;;
9720;SDS011;4899;42.644;23.366;2022-09-09T04:27:44;14.73;;;13.17;;
9720;SDS011;4899;42.644;23.366;2022-09-09T04:30:11;22.00;;;14.60;;
9720;SDS011;4899;42.644;23.366;2022-09-09T04:32:38;14.73;;;13.23;;
9720;SDS011;4899;42.644;23.366;2022-09-09T04:35:05;14.00;;;12.50;;
9720;SDS011;4899;42.644;23.366;2022-09-09T04:37:32;13.83;;;12.43;;
9720;SDS011;4899;42.644;23.366;2022-09-09T04:39:59;15.67;;;13.77;;
9720;SDS011;4899;42.644;23.366;2022-09-09T04:42:28;19.63;;;14.97;;
9720;SDS011;4899;42.644;23.366;2022-09-09T04:44:55;15.03;;;13.67;;
9720;SDS011;4899;42.644;23.366;2022-09-09T04:47:22;17.27;;;13.80;;
9720;SDS011;4899;42.644;23.366;2022-09-09T04:49:49;15.00;;;13.60;;
9720;SDS011;4899;42.644;23.366;2022-09-09T04:52:17;15.80;;;14.17;;
9720;SDS011;4899;42.644;23.366;2022-09-09T04:54:43;18.07;;;14.07;;
9720;SDS011;4899;42.644;23.366;2022-09-09T04:57:11;16.60;;;14.90;;
9720;SDS011;4899;42.644;23.366;2022-09-09T04:59:39;16.97;;;15.20;;
9720;SDS011;4899;42.644;23.366;2022-09-09T05:02:06;20.40;;;14.80;;
9720;SDS011;4899;42.644;23.366;2022-09-09T05:04:35;15.17;;;12.93;;
9720;SDS011;4899;42.644;23.366;2022-09-09T05:07:02;13.73;;;12.43;;
9720;SDS011;4899;42.644;23.366;2022-09-09T05:09:28;16.73;;;13.17;;
9720;SDS011;4899;42.644;23.366;2022-09-09T05:11:55;17.13;;;13.03;;
9720;SDS011;4899;42.644;23.366;2022-09-09T05:14:23;13.83;;;12.30;;
9720;SDS011;4899;42.644;23.366;2022-09-09T05:16:51;13.70;;;12.40;;
9720;SDS011;4899;42.644;23.366;2022-09-09T05:19:18;13.67;;;11.23;;
9720;SDS011;4899;42.644;23.366;2022-09-09T05:21:45;10.73;;;9.63;;
9720;SDS011;4899;42.644;23.366;2022-09-09T05:24:12;10.60;;;9.50;;
9720;SDS011;4899;42.644;23.366;2022-09-09T05:26:38;11.40;;;8.50;;
9720;SDS011;4899;42.644;23.366;2022-09-09T05:29:05;12.50;;;9.10;;
9720;SDS011;4899;42.644;23.366;2022-09-09T05:31:33;10.27;;;8.27;;
9720;SDS011;4899;42.644;23.366;2022-09-09T05:34:01;9.90;;;8.90;;
9720;SDS011;4899;42.644;23.366;2022-09-09T05:36:28;11.60;;;8.20;;
9720;SDS011;4899;42.644;23.366;2022-09-09T05:38:55;13.73;;;9.57;;
9720;SDS011;4899;42.644;23.366;2022-09-09T05:41:22;8.97;;;8.07;;
9720;SDS011;4899;42.644;23.366;2022-09-09T05:43:49;10.17;;;8.37;;
9720;SDS011;4899;42.644;23.366;2022-09-09T05:46:16;10.20;;;7.47;;
9720;SDS011;4899;42.644;23.366;2022-09-09T05:48:45;10.03;;;9.03;;
9720;SDS011;4899;42.644;23.366;2022-09-09T05:51:19;11.03;;;7.63;;
9720;SDS011;4899;42.644;23.366;2022-09-09T05:53:47;10.57;;;9.57;;
9720;SDS011;4899;42.644;23.366;2022-09-09T05:56:16;12.17;;;8.40;;
9720;SDS011;4899;42.644;23.366;2022-09-09T05:58:44;9.53;;;7.47;;
9720;SDS011;4899;42.644;23.366;2022-09-09T06:01:13;11.17;;;7.63;;
9720;SDS011;4899;42.644;23.366;2022-09-09T06:03:42;11.07;;;8.67;;
9720;SDS011;4899;42.644;23.366;2022-09-09T06:06:11;10.93;;;8.27;;
9720;SDS011;4899;42.644;23.366;2022-09-09T06:08:41;10.70;;;8.43;;
9720;SDS011;4899;42.644;23.366;2022-09-09T06:11:09;10.63;;;8.27;;
9720;SDS011;4899;42.644;23.366;2022-09-09T06:13:38;8.90;;;8.10;;
9720;SDS011;4899;42.644;23.366;2022-09-09T06:16:05;11.63;;;9.40;;
9720;SDS011;4899;42.644;23.366;2022-09-09T06:18:33;9.63;;;8.67;;
9720;SDS011;4899;42.644;23.366;2022-09-09T06:21:00;13.70;;;9.23;;
9720;SDS011;4899;42.644;23.366;2022-09-09T06:23:29;8.43;;;7.53;;
9720;SDS011;4899;42.644;23.366;2022-09-09T06:26:05;10.53;;;7.63;;
9720;SDS011;4899;42.644;23.366;2022-09-09T06:28:33;12.53;;;7.60;;
9720;SDS011;4899;42.644;23.366;2022-09-09T06:31:00;8.70;;;7.53;;
9720;SDS011;4899;42.644;23.366;2022-09-09T06:33:32;9.33;;;7.60;;
9720;SDS011;4899;42.644;23.366;2022-09-09T06:36:00;9.63;;;7.27;;
9720;SDS011;4899;42.644;23.366;2022-09-09T06:38:28;10.80;;;8.10;;
9720;SDS011;4899;42.644;23.366;2022-09-09T06:40:56;8.17;;;7.43;;
9720;SDS011;4899;42.644;23.366;2022-09-09T06:43:25;7.50;;;6.80;;
9720;SDS011;4899;42.644;23.366;2022-09-09T06:45:53;13.07;;;7.90;;
9720;SDS011;4899;42.644;23.366;2022-09-09T06:48:20;9.60;;;7.33;;
9720;SDS011;4899;42.644;23.366;2022-09-09T06:50:47;11.03;;;9.30;;
9720;SDS011;4899;42.644;23.366;2022-09-09T06:53:16;9.33;;;8.27;;
9720;SDS011;4899;42.644;23.366;2022-09-09T06:55:44;9.57;;;7.47;;
9720;SDS011;4899;42.644;23.366;2022-09-09T06:58:11;11.90;;;7.80;;
9720;SDS011;4899;42.644;23.366;2022-09-09T07:00:39;9.60;;;7.70;;
9720;SDS011;4899;42.644;23.366;2022-09-09T07:03:06;13.07;;;10.40;;
9720;SDS011;4899;42.644;23.366;2022-09-09T07:05:33;7.97;;;7.30;;
9720;SDS011;4899;42.644;23.366;2022-09-09T07:08:00;11.33;;;8.63;;
9720;SDS011;4899;42.644;23.366;2022-09-09T07:10:27;9.63;;;7.80;;
9720;SDS011;4899;42.644;23.366;2022-09-09T07:12:54;9.93;;;7.07;;
9720;SDS011;4899;42.644;23.366;2022-09-09T07:15:20;7.00;;;6.30;;
9720;SDS011;4899;42.644;23.366;2022-09-09T07:17:49;10.30;;;7.80;;
9720;SDS011;4899;42.644;23.366;2022-09-09T07:20:16;10.10;;;6.30;;
9720;SDS011;4899;42.644;23.366;2022-09-09T07:22:42;7.97;;;7.17;;
9720;SDS011;4899;42.644;23.366;2022-09-09T07:25:09;7.87;;;5.77;;
9720;SDS011;4899;42.644;23.366;2022-09-09T07:27:36;9.07;;;6.20;;
9720;SDS011;4899;42.644;23.366;2022-09-09T07:30:03;11.40;;;7.20;;
9720;SDS011;4899;42.644;23.366;2022-09-09T07:32:31;9.67;;;6.97;;
9720;SDS011;4899;42.644;23.366;2022-09-09T07:34:59;7.83;;;6.87;;
9720;SDS011;4899;42.644;23.366;2022-09-09T07:37:26;7.83;;;6.97;;
9720;SDS011;4899;42.644;23.366;2022-09-09T07:39:53;14.57;;;7.47;;
9720;SDS011;4899;42.644;23.366;2022-09-09T07:42:20;7.23;;;6.40;;
9720;SDS011;4899;42.644;23.366;2022-09-09T07:44:47;6.70;;;6.10;;
9720;SDS011;4899;42.644;23.366;2022-09-09T07:47:13;11.60;;;6.70;;
9720;SDS011;4899;42.644;23.366;2022-09-09T07:49:40;10.23;;;6.13;;
9720;SDS011;4899;42.644;23.366;2022-09-09T07:52:08;8.30;;;6.00;;
9720;SDS011;4899;42.644;23.366;2022-09-09T07:54:35;7.63;;;6.63;;
9720;SDS011;4899;42.644;23.366;2022-09-09T07:57:02;11.00;;;7.00;;
9720;SDS011;4899;42.644;23.366;2022-09-09T07:59:29;7.20;;;5.97;;
9720;SDS011;4899;42.644;23.366;2022-09-09T08:01:56;7.33;;;6.53;;
9720;SDS011;4899;42.644;23.366;2022-09-09T08:04:23;7.60;;;6.83;;
9720;SDS011;4899;42.644;23.366;2022-09-09T08:06:53;9.40;;;5.97;;
9720;SDS011;4899;42.644;23.366;2022-09-09T08:09:23;6.07;;;5.50;;
9720;SDS011;4899;42.644;23.366;2022-09-09T08:11:53;7.00;;;6.33;;
9720;SDS011;4899;42.644;23.366;2022-09-09T08:14:21;6.67;;;6.03;;
9720;SDS011;4899;42.644;23.366;2022-09-09T08:16:49;7.03;;;5.53;;
9720;SDS011;4899;42.644;23.366;2022-09-09T08:19:18;11.13;;;5.83;;
9720;SDS011;4899;42.644;23.366;2022-09-09T08:21:45;7.93;;;5.67;;
9720;SDS011;4899;42.644;23.366;2022-09-09T08:24:14;9.33;;;5.87;;
9720;SDS011;4899;42.644;23.366;2022-09-09T08:26:43;7.87;;;5.50;;
9720;SDS011;4899;42.644;23.366;2022-09-09T08:29:12;8.50;;;5.87;;
9720;SDS011;4899;42.644;23.366;2022-09-09T08:31:40;9.03;;;5.53;;
9720;SDS011;4899;42.644;23.366;2022-09-09T08:34:08;6.63;;;5.57;;
9720;SDS011;4899;42.644;23.366;2022-09-09T08:36:36;9.20;;;5.30;;
9720;SDS011;4899;42.644;23.366;2022-09-09T08:39:06;11.77;;;5.37;;
9720;SDS011;4899;42.644;23.366;2022-09-09T08:41:39;9.10;;;7.97;;
9720;SDS011;4899;42.644;23.366;2022-09-09T08:44:19;6.63;;;5.80;;
9720;SDS011;4899;42.644;23.366;2022-09-09T08:46:54;6.90;;;5.23;;
9720;SDS011;4899;42.644;23.366;2022-09-09T08:49:38;6.47;;;5.80;;
9720;SDS011;4899;42.644;23.366;2022-09-09T08:52:19;7.10;;;5.30;;
9720;SDS011;4899;42.644;23.366;2022-09-09T08:54:50;8.20;;;5.40;;
9720;SDS011;4899;42.644;23.366;2022-09-09T08:57:21;6.60;;;5.63;;
9720;SDS011;4899;42.644;23.366;2022-09-09T08:59:52;11.23;;;5.87;;
9720;SDS011;4899;42.644;23.366;2022-09-09T09:02:23;6.20;;;5.53;;
9720;SDS011;4899;42.644;23.366;2022-09-09T09:05:00;10.63;;;5.07;;
9720;SDS011;4899;42.644;23.366;2022-09-09T09:07:40;6.88;;;5.05;;
9720;SDS011;4899;42.644;23.366;2022-09-09T09:10:25;5.72;;;4.90;;
9720;SDS011;4899;42.644;23.366;2022-09-09T09:13:01;7.57;;;5.93;;
9720;SDS011;4899;42.644;23.366;2022-09-09T09:15:29;6.17;;;5.57;;
9720;SDS011;4899;42.644;23.366;2022-09-09T09:18:01;6.60;;;5.90;;
9720;SDS011;4899;42.644;23.366;2022-09-09T09:20:30;5.15;;;4.65;;
9720;SDS011;4899;42.644;23.366;2022-09-09T09:23:04;7.40;;;5.65;;
9720;SDS011;4899;42.644;23.366;2022-09-09T09:25:34;8.55;;;5.35;;
9720;SDS011;4899;42.644;23.366;2022-09-09T09:28:10;6.57;;;5.50;;
9720;SDS011;4899;42.644;23.366;2022-09-09T09:30:42;9.93;;;5.50;;
9720;SDS011;4899;42.644;23.366;2022-09-09T09:33:14;7.40;;;5.35;;
9720;SDS011;4899;42.644;23.366;2022-09-09T09:35:45;9.52;;;5.80;;
9720;SDS011;4899;42.644;23.366;2022-09-09T09:38:16;14.88;;;11.68;;
9720;SDS011;4899;42.644;23.366;2022-09-09T09:40:48;17.30;;;14.40;;
9720;SDS011;4899;42.644;23.366;2022-09-09T09:43:20;7.80;;;5.57;;
9720;SDS011;4899;42.644;23.366;2022-09-09T09:45:50;7.32;;;5.55;;
9720;SDS011;4899;42.644;23.366;2022-09-09T09:48:16;5.75;;;5.25;;
9720;SDS011;4899;42.644;23.366;2022-09-09T09:50:46;12.40;;;5.72;;
9720;SDS011;4899;42.644;23.366;2022-09-09T09:53:23;7.03;;;5.07;;
9720;SDS011;4899;42.644;23.366;2022-09-09T09:55:54;8.30;;;5.55;;
9720;SDS011;4899;42.644;23.366;2022-09-09T09:58:25;10.15;;;6.07;;
9720;SDS011;4899;42.644;23.366;2022-09-09T10:00:55;6.35;;;5.75;;
9720;SDS011;4899;42.644;23.366;2022-09-09T10:03:23;8.13;;;5.97;;
9720;SDS011;4899;42.644;23.366;2022-09-09T10:05:52;8.73;;;5.53;;
9720;SDS011;4899;42.644;23.366;2022-09-09T10:08:21;6.07;;;5.50;;
9720;SDS011;4899;42.644;23.366;2022-09-09T10:10:54;7.22;;;5.03;;
9720;SDS011;4899;42.644;23.366;2022-09-09T10:13:31;8.00;;;5.50;;
9720;SDS011;4899;42.644;23.366;2022-09-09T10:16:09;7.45;;;5.50;;
9720;SDS011;4899;42.644;23.366;2022-09-09T10:18:50;6.93;;;6.22;;
9720;SDS011;4899;42.644;23.366;2022-09-09T10:21:31;6.50;;;5.80;;
9720;SDS011;4899;42.644;23.366;2022-09-09T10:24:15;7.53;;;5.47;;
9720;SDS011;4899;42.644;23.366;2022-09-09T10:27:11;7.00;;;5.60;;
9720;SDS011;4899;42.644;23.366;2022-09-09T10:29:50;8.20;;;6.32;;
9720;SDS011;4899;42.644;23.366;2022-09-09T10:35:24;6.03;;;5.43;;
9720;SDS011;4899;42.644;23.366;2022-09-09T10:38:04;6.67;;;5.50;;
9720;SDS011;4899;42.644;23.366;2022-09-09T10:40:40;10.77;;;6.03;;
9720;SDS011;4899;42.644;23.366;2022-09-09T10:43:18;8.83;;;5.63;;
9720;SDS011;4899;42.644;23.366;2022-09-09T10:46:02;6.63;;;6.03;;
9720;SDS011;4899;42.644;23.366;2022-09-09T10:48:36;6.30;;;5.20;;
9720;SDS011;4899;42.644;23.366;2022-09-09T10:51:18;7.17;;;5.80;;
9720;SDS011;4899;42.644;23.366;2022-09-09T10:54:00;8.63;;;5.70;;
9720;SDS011;4899;42.644;23.366;2022-09-09T10:56:40;10.93;;;5.82;;
9720;SDS011;4899;42.644;23.366;2022-09-09T10:59:16;10.87;;;5.60;;
9720;SDS011;4899;42.644;23.366;2022-09-09T11:01:51;7.97;;;6.00;;
9720;SDS011;4899;42.644;23.366;2022-09-09T11:04:25;6.47;;;5.47;;
9720;SDS011;4899;42.644;23.366;2022-09-09T11:06:57;8.57;;;6.17;;
9720;SDS011;4899;42.644;23.366;2022-09-09T11:09:31;8.93;;;6.43;;
9720;SDS011;4899;42.644;23.366;2022-09-09T11:12:02;8.40;;;6.20;;
9720;SDS011;4899;42.644;23.366;2022-09-09T11:14:30;6.43;;;5.67;;
9720;SDS011;4899;42.644;23.366;2022-09-09T11:17:03;6.93;;;6.17;;
9720;SDS011;4899;42.644;23.366;2022-09-09T11:19:38;9.77;;;6.10;;
9720;SDS011;4899;42.644;23.366;2022-09-09T11:22:07;10.07;;;6.07;;
9720;SDS011;4899;42.644;23.366;2022-09-09T11:24:43;7.03;;;5.97;;
9720;SDS011;4899;42.644;23.366;2022-09-09T11:27:15;7.03;;;5.85;;
9720;SDS011;4899;42.644;23.366;2022-09-09T11:32:52;8.67;;;6.60;;
9720;SDS011;4899;42.644;23.366;2022-09-09T11:35:30;11.20;;;6.53;;
9720;SDS011;4899;42.644;23.366;2022-09-09T11:38:13;10.85;;;6.40;;
9720;SDS011;4899;42.644;23.366;2022-09-09T11:40:44;7.70;;;6.43;;
9720;SDS011;4899;42.644;23.366;2022-09-09T11:43:13;10.48;;;6.18;;
9720;SDS011;4899;42.644;23.366;2022-09-09T11:45:50;8.73;;;6.63;;
9720;SDS011;4899;42.644;23.366;2022-09-09T11:48:25;12.45;;;11.15;;
9720;SDS011;4899;42.644;23.366;2022-09-09T11:50:59;8.93;;;6.50;;
9720;SDS011;4899;42.644;23.366;2022-09-09T11:53:29;10.45;;;7.07;;
9720;SDS011;4899;42.644;23.366;2022-09-09T11:56:06;10.60;;;7.13;;
9720;SDS011;4899;42.644;23.366;2022-09-09T11:58:37;7.47;;;6.78;;
9720;SDS011;4899;42.644;23.366;2022-09-09T12:01:16;7.90;;;7.13;;
9720;SDS011;4899;42.644;23.366;2022-09-09T12:03:59;8.20;;;7.35;;
9720;SDS011;4899;42.644;23.366;2022-09-09T12:06:41;10.93;;;7.85;;
9720;SDS011;4899;42.644;23.366;2022-09-09T12:09:14;13.23;;;9.75;;
9720;SDS011;4899;42.644;23.366;2022-09-09T12:11:48;9.02;;;7.70;;
9720;SDS011;4899;42.644;23.366;2022-09-09T12:14:22;9.75;;;7.25;;
9720;SDS011;4899;42.644;23.366;2022-09-09T12:17:09;9.57;;;6.45;;
9720;SDS011;4899;42.644;23.366;2022-09-09T12:19:46;10.20;;;7.40;;
9720;SDS011;4899;42.644;23.366;2022-09-09T12:22:15;12.38;;;7.65;;
9720;SDS011;4899;42.644;23.366;2022-09-09T12:24:51;7.97;;;7.18;;
9720;SDS011;4899;42.644;23.366;2022-09-09T12:27:26;11.48;;;7.25;;
9720;SDS011;4899;42.644;23.366;2022-09-09T12:29:59;8.38;;;7.10;;
9720;SDS011;4899;42.644;23.366;2022-09-09T12:32:31;9.00;;;7.35;;
9720;SDS011;4899;42.644;23.366;2022-09-09T12:34:59;9.68;;;7.55;;
9720;SDS011;4899;42.644;23.366;2022-09-09T12:37:31;10.82;;;7.18;;
9720;SDS011;4899;42.644;23.366;2022-09-09T12:40:02;10.45;;;6.90;;
9720;SDS011;4899;42.644;23.366;2022-09-09T12:42:32;9.38;;;6.95;;
9720;SDS011;4899;42.644;23.366;2022-09-09T12:44:59;11.38;;;7.28;;
9720;SDS011;4899;42.644;23.366;2022-09-09T12:47:33;12.55;;;8.35;;
9720;SDS011;4899;42.644;23.366;2022-09-09T12:50:14;17.52;;;14.02;;
9720;SDS011;4899;42.644;23.366;2022-09-09T12:52:42;13.32;;;8.77;;
9720;SDS011;4899;42.644;23.366;2022-09-09T12:55:14;10.35;;;8.52;;
9720;SDS011;4899;42.644;23.366;2022-09-09T12:57:44;8.90;;;7.22;;
9720;SDS011;4899;42.644;23.366;2022-09-09T13:00:13;10.20;;;7.75;;
9720;SDS011;4899;42.644;23.366;2022-09-09T13:02:46;11.18;;;7.25;;
9720;SDS011;4899;42.644;23.366;2022-09-09T13:05:17;41.55;;;37.25;;
9720;SDS011;4899;42.644;23.366;2022-09-09T13:07:47;9.18;;;7.10;;
9720;SDS011;4899;42.644;23.366;2022-09-09T13:10:15;9.90;;;7.13;;
9720;SDS011;4899;42.644;23.366;2022-09-09T13:12:49;10.65;;;7.80;;
9720;SDS011;4899;42.644;23.366;2022-09-09T13:15:19;12.90;;;6.85;;
9720;SDS011;4899;42.644;23.366;2022-09-09T13:17:52;9.65;;;7.05;;
9720;SDS011;4899;42.644;23.366;2022-09-09T13:20:22;10.43;;;7.53;;
9720;SDS011;4899;42.644;23.366;2022-09-09T13:22:50;10.25;;;7.47;;
9720;SDS011;4899;42.644;23.366;2022-09-09T13:25:20;15.52;;;13.20;;
9720;SDS011;4899;42.644;23.366;2022-09-09T13:27:51;10.82;;;7.72;;
9720;SDS011;4899;42.644;23.366;2022-09-09T13:30:22;14.68;;;11.70;;
9720;SDS011;4899;42.644;23.366;2022-09-09T13:33:02;11.68;;;9.07;;
9720;SDS011;4899;42.644;23.366;2022-09-09T13:35:33;9.80;;;7.97;;
9720;SDS011;4899;42.644;23.366;2022-09-09T13:38:06;8.98;;;6.60;;
9720;SDS011;4899;42.644;23.366;2022-09-09T13:40:34;9.27;;;7.32;;
9720;SDS011;4899;42.644;23.366;2022-09-09T13:43:02;10.15;;;7.75;;
9720;SDS011;4899;42.644;23.366;2022-09-09T13:45:30;14.10;;;7.00;;
9720;SDS011;4899;42.644;23.366;2022-09-09T13:47:59;8.75;;;6.65;;
9720;SDS011;4899;42.644;23.366;2022-09-09T13:50:36;13.27;;;7.90;;
9720;SDS011;4899;42.644;23.366;2022-09-09T13:53:03;8.55;;;6.63;;
9720;SDS011;4899;42.644;23.366;2022-09-09T13:55:30;12.30;;;7.38;;
9720;SDS011;4899;42.644;23.366;2022-09-09T13:57:57;10.27;;;7.22;;
9720;SDS011;4899;42.644;23.366;2022-09-09T14:00:26;11.15;;;6.88;;
9720;SDS011;4899;42.644;23.366;2022-09-09T14:02:56;18.95;;;8.43;;
9720;SDS011;4899;42.644;23.366;2022-09-09T14:05:23;8.23;;;6.80;;
9720;SDS011;4899;42.644;23.366;2022-09-09T14:07:51;8.75;;;7.57;;
9720;SDS011;4899;42.644;23.366;2022-09-09T14:10:18;19.85;;;14.10;;
9720;SDS011;4899;42.644;23.366;2022-09-09T14:12:46;9.77;;;7.63;;
9720;SDS011;4899;42.644;23.366;2022-09-09T14:15:12;8.57;;;7.55;;
9720;SDS011;4899;42.644;23.366;2022-09-09T14:17:40;13.02;;;7.15;;
9720;SDS011;4899;42.644;23.366;2022-09-09T14:20:07;13.18;;;7.40;;
9720;SDS011;4899;42.644;23.366;2022-09-09T14:22:35;9.73;;;7.47;;
9720;SDS011;4899;42.644;23.366;2022-09-09T14:25:06;13.18;;;9.38;;
9720;SDS011;4899;42.644;23.366;2022-09-09T14:27:33;10.73;;;8.05;;
9720;SDS011;4899;42.644;23.366;2022-09-09T14:30:00;10.02;;;6.80;;
9720;SDS011;4899;42.644;23.366;2022-09-09T14:32:27;8.32;;;6.97;;
9720;SDS011;4899;42.644;23.366;2022-09-09T14:34:55;12.02;;;6.40;;
9720;SDS011;4899;42.644;23.366;2022-09-09T14:37:22;8.93;;;6.38;;
9720;SDS011;4899;42.644;23.366;2022-09-09T14:39:49;10.10;;;7.05;;
9720;SDS011;4899;42.644;23.366;2022-09-09T14:42:17;9.82;;;5.95;;
9720;SDS011;4899;42.644;23.366;2022-09-09T14:44:44;12.50;;;6.70;;
9720;SDS011;4899;42.644;23.366;2022-09-09T14:47:12;12.50;;;7.43;;
9720;SDS011;4899;42.644;23.366;2022-09-09T14:49:39;12.45;;;7.70;;
9720;SDS011;4899;42.644;23.366;2022-09-09T14:52:06;15.70;;;7.00;;
9720;SDS011;4899;42.644;23.366;2022-09-09T14:54:34;12.02;;;6.30;;
9720;SDS011;4899;42.644;23.366;2022-09-09T14:57:04;8.70;;;6.78;;
9720;SDS011;4899;42.644;23.366;2022-09-09T14:59:32;8.70;;;7.57;;
9720;SDS011;4899;42.644;23.366;2022-09-09T15:01:59;8.40;;;7.43;;
9720;SDS011;4899;42.644;23.366;2022-09-09T15:04:29;11.90;;;7.40;;
9720;SDS011;4899;42.644;23.366;2022-09-09T15:06:56;9.55;;;7.38;;
9720;SDS011;4899;42.644;23.366;2022-09-09T15:09:23;10.48;;;7.78;;
9720;SDS011;4899;42.644;23.366;2022-09-09T15:11:50;15.50;;;12.05;;
9720;SDS011;4899;42.644;23.366;2022-09-09T15:14:17;11.50;;;8.15;;